createdAt,value
2019-05-16T00:00:00.874Z,84.52
2019-05-16T00:01:00.769Z,84.23
2019-05-16T00:02:01.486Z,84.13
2019-05-16T00:03:00.595Z,84.33
2019-05-16T00:04:00.626Z,84.13
2019-05-16T00:05:00.442Z,84.61
2019-05-16T00:06:00.435Z,84.61
2019-05-16T00:07:00.258Z,84.80
2019-05-16T00:08:00.249Z,84.23
2019-05-16T00:09:00.090Z,84.52
2019-05-16T00:10:00.116Z,84.04
2019-05-16T00:10:59.921Z,84.13
2019-05-16T00:11:59.872Z,84.23
2019-05-16T00:12:59.912Z,84.13
2019-05-16T00:13:59.876Z,84.23
2019-05-16T00:14:59.599Z,83.56
2019-05-16T00:15:59.683Z,84.61
2019-05-16T00:16:59.424Z,83.65
2019-05-16T00:17:59.333Z,83.94
2019-05-16T00:18:59.294Z,84.33
2019-05-16T00:19:59.180Z,84.33
2019-05-16T00:20:59.089Z,84.04
2019-05-16T00:21:59.108Z,84.13
2019-05-16T00:22:59.164Z,84.04
2019-05-16T00:23:58.829Z,84.33
2019-05-16T00:24:58.967Z,84.61
2019-05-16T00:25:58.807Z,84.42
2019-05-16T00:26:58.586Z,84.70
2019-05-16T00:27:58.891Z,84.70
2019-05-16T00:28:58.917Z,85.08
2019-05-16T00:29:58.344Z,85.37
2019-05-16T00:30:59.120Z,84.80
2019-05-16T00:31:58.161Z,85.47
2019-05-16T00:32:58.778Z,85.08
2019-05-16T00:33:58.163Z,85.28
2019-05-16T00:34:58.449Z,85.37
2019-05-16T00:36:03.544Z,85.56
2019-05-16T00:36:58.164Z,85.75
2019-05-16T00:37:58.936Z,86.51
2019-05-16T00:38:57.955Z,86.70
2019-05-16T00:39:58.858Z,86.32
2019-05-16T00:40:59.116Z,85.94
2019-05-16T00:41:58.396Z,86.04
2019-05-16T00:42:58.849Z,86.32
2019-05-16T00:43:57.732Z,85.94
2019-05-16T00:44:58.369Z,86.99
2019-05-16T00:45:58.756Z,86.99
2019-05-16T00:46:58.109Z,86.90
2019-05-16T00:47:58.489Z,86.70
2019-05-16T00:48:58.769Z,87.37
2019-05-16T00:49:58.243Z,87.65
2019-05-16T00:50:58.388Z,88.04
2019-05-16T00:51:58.313Z,88.42
2019-05-16T00:52:58.691Z,88.79
2019-05-16T00:53:58.692Z,88.99
2019-05-16T00:54:57.989Z,89.32
2019-05-16T00:55:58.371Z,89.37
2019-05-16T00:56:57.825Z,89.89
2019-05-16T00:57:58.194Z,89.51
2019-05-16T00:58:55.893Z,89.42
2019-05-16T00:59:55.915Z,89.89
2019-05-16T01:00:55.723Z,90.28
2019-05-16T01:01:55.686Z,90.18
2019-05-16T01:02:57.746Z,89.89
2019-05-16T01:03:55.469Z,89.80
2019-05-16T01:04:55.535Z,89.51
2019-05-16T01:05:55.304Z,90.56
2019-05-16T01:06:55.228Z,90.56
2019-05-16T01:07:55.314Z,90.28
2019-05-16T01:08:55.049Z,90.66
2019-05-16T01:09:55.123Z,90.47
2019-05-16T01:10:54.898Z,90.47
2019-05-16T01:11:54.930Z,90.56
2019-05-16T01:12:54.722Z,90.84
2019-05-16T01:13:54.637Z,90.75
2019-05-16T01:14:54.747Z,90.94
2019-05-16T01:15:54.476Z,90.75
2019-05-16T01:16:54.378Z,90.94
2019-05-16T01:17:54.358Z,91.80
2019-05-16T01:18:54.213Z,91.61
2019-05-16T01:19:54.166Z,91.61
2019-05-16T01:20:54.057Z,91.61
2019-05-16T01:21:54.184Z,91.51
2019-05-16T01:22:53.876Z,91.32
2019-05-16T01:23:53.989Z,91.70
2019-05-16T01:24:53.705Z,91.42
2019-05-16T01:25:53.844Z,91.22
2019-05-16T01:26:53.541Z,91.89
2019-05-16T01:27:53.604Z,91.42
2019-05-16T01:28:53.370Z,91.70
2019-05-16T01:29:53.285Z,92.46
2019-05-16T01:30:53.245Z,91.85
2019-05-16T01:31:53.126Z,92.46
2019-05-16T01:32:53.041Z,92.46
2019-05-16T01:33:53.032Z,92.99
2019-05-16T01:34:52.870Z,92.70
2019-05-16T01:35:52.883Z,92.22
2019-05-16T01:36:52.697Z,92.41
2019-05-16T01:37:52.626Z,92.99
2019-05-16T01:38:52.532Z,92.99
2019-05-16T01:39:52.662Z,92.32
2019-05-16T01:40:52.378Z,92.32
2019-05-16T01:41:52.471Z,92.22
2019-05-16T01:42:52.194Z,92.22
2019-05-16T01:43:52.274Z,91.75
2019-05-16T01:44:52.030Z,91.56
2019-05-16T01:45:52.122Z,91.22
2019-05-16T01:46:51.864Z,91.80
2019-05-16T01:47:51.894Z,91.32
2019-05-16T01:48:51.689Z,91.51
2019-05-16T01:49:51.700Z,91.13
2019-05-16T01:50:51.519Z,91.42
2019-05-16T01:51:51.540Z,91.70
2019-05-16T01:52:51.357Z,91.32
2019-05-16T01:53:51.275Z,91.70
2019-05-16T01:54:51.324Z,91.32
2019-05-16T01:55:51.126Z,91.61
2019-05-16T01:56:51.030Z,91.61
2019-05-16T01:57:51.142Z,91.70
2019-05-16T01:58:50.850Z,91.13
2019-05-16T01:59:50.771Z,91.13
2019-05-16T02:01:02.131Z,91.61
2019-05-16T02:01:50.614Z,91.03
2019-05-16T02:02:50.513Z,91.80
2019-05-16T02:03:50.566Z,91.22
2019-05-16T02:04:50.340Z,91.51
2019-05-16T02:05:50.257Z,91.51
2019-05-16T02:06:54.442Z,91.51
2019-05-16T02:07:50.087Z,91.61
2019-05-16T02:08:50.008Z,91.61
2019-05-16T02:09:49.998Z,91.13
2019-05-16T02:10:49.843Z,91.32
2019-05-16T02:11:49.843Z,91.32
2019-05-16T02:12:49.666Z,91.03
2019-05-16T02:13:49.586Z,91.61
2019-05-16T02:14:49.618Z,91.32
2019-05-16T02:15:49.416Z,91.22
2019-05-16T02:16:49.337Z,91.51
2019-05-16T02:17:49.466Z,91.70
2019-05-16T02:18:49.163Z,91.32
2019-05-16T02:19:49.088Z,90.94
2019-05-16T02:20:48.997Z,90.84
2019-05-16T02:21:50.704Z,91.61
2019-05-16T02:22:48.845Z,91.51
2019-05-16T02:23:51.603Z,91.32
2019-05-16T02:24:48.657Z,91.42
2019-05-16T02:25:49.187Z,91.42
2019-05-16T02:26:49.332Z,91.32
2019-05-16T02:27:48.981Z,91.61
2019-05-16T02:28:50.766Z,91.61
2019-05-16T02:29:50.580Z,91.32
2019-05-16T02:30:51.469Z,91.70
2019-05-16T02:31:51.116Z,91.70
2019-05-16T02:32:51.873Z,91.89
2019-05-16T02:33:50.815Z,91.70
2019-05-16T02:34:47.902Z,91.42
2019-05-16T02:35:54.812Z,91.13
2019-05-16T02:37:08.284Z,91.32
2019-05-16T02:37:47.776Z,91.13
2019-05-16T02:38:50.882Z,91.61
2019-05-16T02:39:47.408Z,91.99
2019-05-16T02:40:47.329Z,91.61
2019-05-16T02:41:47.238Z,91.51
2019-05-16T02:42:47.160Z,91.99
2019-05-16T02:43:47.147Z,92.56
2019-05-16T02:44:46.980Z,92.94
2019-05-16T02:45:46.914Z,92.84
2019-05-16T02:46:46.960Z,93.13
2019-05-16T02:47:46.757Z,92.75
2019-05-16T02:48:46.645Z,93.32
2019-05-16T02:49:46.784Z,92.84
2019-05-16T02:50:46.473Z,93.04
2019-05-16T02:51:46.394Z,92.08
2019-05-16T02:52:46.385Z,92.46
2019-05-16T02:53:46.240Z,92.18
2019-05-16T02:54:46.137Z,92.36
2019-05-16T02:55:46.199Z,92.65
2019-05-16T02:56:45.976Z,93.13
2019-05-16T02:57:46.011Z,92.46
2019-05-16T02:58:45.816Z,93.04
2019-05-16T02:59:45.716Z,93.23
2019-05-16T03:00:45.823Z,92.94
2019-05-16T03:01:45.553Z,92.84
2019-05-16T03:02:45.464Z,93.32
2019-05-16T03:03:45.468Z,92.94
2019-05-16T03:04:45.298Z,92.75
2019-05-16T03:05:45.219Z,93.41
2019-05-16T03:06:45.253Z,93.04
2019-05-16T03:07:47.416Z,93.32
2019-05-16T03:08:44.976Z,93.41
2019-05-16T03:09:44.893Z,93.89
2019-05-16T03:10:44.797Z,93.32
2019-05-16T03:11:44.876Z,93.60
2019-05-16T03:12:44.625Z,93.13
2019-05-16T03:13:44.661Z,93.60
2019-05-16T03:14:44.481Z,93.98
2019-05-16T03:15:44.374Z,93.60
2019-05-16T03:16:44.294Z,94.18
2019-05-16T03:17:44.312Z,93.89
2019-05-16T03:18:44.134Z,94.27
2019-05-16T03:19:44.052Z,94.37
2019-05-16T03:20:43.958Z,94.84
2019-05-16T03:21:43.919Z,95.22
2019-05-16T03:22:43.784Z,94.74
2019-05-16T03:23:43.708Z,95.41
2019-05-16T03:24:43.761Z,95.51
2019-05-16T03:25:43.535Z,95.12
2019-05-16T03:26:43.539Z,95.22
2019-05-16T03:27:43.365Z,96.36
2019-05-16T03:28:43.351Z,96.46
2019-05-16T03:29:43.209Z,96.36
2019-05-16T03:30:44.952Z,96.36
2019-05-16T03:31:45.143Z,96.55
2019-05-16T03:32:45.662Z,96.55
2019-05-16T03:33:50.345Z,96.65
2019-05-16T03:34:44.456Z,96.65
2019-05-16T03:35:44.878Z,96.74
2019-05-16T03:36:43.823Z,96.55
2019-05-16T03:37:55.058Z,96.94
2019-05-16T03:38:42.597Z,96.46
2019-05-16T03:39:42.519Z,97.22
2019-05-16T03:40:42.303Z,96.84
2019-05-16T03:41:42.407Z,97.13
2019-05-16T03:42:42.121Z,97.41
2019-05-16T03:43:42.032Z,95.89
2019-05-16T03:44:42.027Z,95.98
2019-05-16T03:45:42.011Z,95.70
2019-05-16T03:46:41.773Z,94.74
2019-05-16T03:47:42.889Z,94.93
2019-05-16T03:48:41.605Z,94.27
2019-05-16T03:49:42.174Z,94.08
2019-05-16T03:50:41.486Z,94.32
2019-05-16T03:51:41.770Z,94.42
2019-05-16T03:52:43.658Z,94.60
2019-05-16T03:53:41.261Z,95.08
2019-05-16T03:54:41.982Z,94.42
2019-05-16T03:55:41.210Z,94.89
2019-05-16T03:56:41.090Z,95.03
2019-05-16T03:57:41.756Z,94.74
2019-05-16T03:58:41.737Z,95.27
2019-05-16T03:59:41.133Z,95.32
2019-05-16T04:00:45.393Z,95.60
2019-05-16T04:01:41.123Z,96.26
2019-05-16T04:02:42.068Z,96.08
2019-05-16T04:03:41.205Z,96.26
2019-05-16T04:04:41.675Z,95.89
2019-05-16T04:05:41.332Z,96.26
2019-05-16T04:06:41.562Z,95.89
2019-05-16T04:07:41.453Z,95.98
2019-05-16T04:08:41.255Z,96.46
2019-05-16T04:09:41.217Z,96.55
2019-05-16T04:10:40.932Z,96.55
2019-05-16T04:11:42.494Z,97.13
2019-05-16T04:12:42.017Z,97.69
2019-05-16T04:13:41.182Z,97.03
2019-05-16T04:14:40.913Z,97.50
2019-05-16T04:15:40.739Z,97.69
2019-05-16T04:16:41.463Z,97.69
2019-05-16T04:17:41.190Z,97.79
2019-05-16T04:18:41.979Z,97.98
2019-05-16T04:19:41.545Z,98.17
2019-05-16T04:20:40.577Z,96.94
2019-05-16T04:21:42.072Z,97.31
2019-05-16T04:22:40.795Z,97.50
2019-05-16T04:23:41.691Z,97.03
2019-05-16T04:24:41.568Z,97.69
2019-05-16T04:25:41.070Z,97.60
2019-05-16T04:26:40.948Z,97.41
2019-05-16T04:27:41.252Z,96.55
2019-05-16T04:28:41.181Z,95.70
2019-05-16T04:29:40.837Z,96.17
2019-05-16T04:30:41.317Z,96.12
2019-05-16T04:31:41.060Z,96.51
2019-05-16T04:32:37.921Z,96.79
2019-05-16T04:33:41.192Z,96.51
2019-05-16T04:34:37.759Z,96.51
2019-05-16T04:35:40.960Z,96.12
2019-05-16T04:36:40.486Z,95.36
2019-05-16T04:37:37.505Z,95.56
2019-05-16T04:38:42.814Z,95.27
2019-05-16T04:39:37.428Z,95.08
2019-05-16T04:40:38.704Z,95.84
2019-05-16T04:41:40.703Z,96.22
2019-05-16T04:42:37.147Z,95.94
2019-05-16T04:43:37.002Z,95.65
2019-05-16T04:44:36.919Z,95.94
2019-05-16T04:45:36.874Z,95.56
2019-05-16T04:46:36.769Z,96.12
2019-05-16T04:47:36.774Z,96.22
2019-05-16T04:48:36.582Z,95.84
2019-05-16T04:49:36.586Z,96.12
2019-05-16T04:50:36.421Z,95.56
2019-05-16T04:51:36.428Z,94.27
2019-05-16T04:52:36.253Z,94.65
2019-05-16T04:53:36.174Z,94.37
2019-05-16T04:54:36.087Z,93.22
2019-05-16T04:55:36.016Z,93.13
2019-05-16T04:56:35.929Z,92.55
2019-05-16T04:57:35.925Z,92.46
2019-05-16T04:58:35.751Z,92.08
2019-05-16T04:59:35.736Z,91.70
2019-05-16T05:00:35.589Z,91.70
2019-05-16T05:01:35.574Z,90.65
2019-05-16T05:02:35.419Z,90.08
2019-05-16T05:03:35.349Z,90.46
2019-05-16T05:04:35.250Z,90.27
2019-05-16T05:05:35.271Z,89.70
2019-05-16T05:06:35.102Z,89.84
2019-05-16T05:07:35.075Z,89.51
2019-05-16T05:08:49.329Z,89.13
2019-05-16T05:09:34.844Z,88.60
2019-05-16T05:10:34.752Z,88.18
2019-05-16T05:11:41.258Z,88.79
2019-05-16T05:12:34.586Z,89.32
2019-05-16T05:13:34.504Z,89.03
2019-05-16T05:14:34.418Z,88.37
2019-05-16T05:15:34.414Z,88.46
2019-05-16T05:16:34.279Z,88.27
2019-05-16T05:17:34.166Z,88.37
2019-05-16T05:18:34.130Z,88.60
2019-05-16T05:19:34.013Z,88.41
2019-05-16T05:20:33.927Z,88.56
2019-05-16T05:21:33.877Z,87.41
2019-05-16T05:22:33.783Z,87.70
2019-05-16T05:23:33.673Z,88.37
2019-05-16T05:24:33.592Z,87.41
2019-05-16T05:25:33.516Z,86.94
2019-05-16T05:26:33.426Z,86.94
2019-05-16T05:27:33.359Z,87.23
2019-05-16T05:28:33.256Z,86.75
2019-05-16T05:29:33.174Z,87.23
2019-05-16T05:30:33.100Z,86.84
2019-05-16T05:31:35.222Z,86.98
2019-05-16T05:32:32.933Z,86.36
2019-05-16T05:33:32.843Z,86.46
2019-05-16T05:34:32.756Z,86.84
2019-05-16T05:35:32.673Z,86.84
2019-05-16T05:36:32.598Z,87.13
2019-05-16T05:37:32.520Z,86.84
2019-05-16T05:38:32.436Z,86.03
2019-05-16T05:39:32.343Z,86.65
2019-05-16T05:40:32.265Z,86.18
2019-05-16T05:41:32.170Z,85.93
2019-05-16T05:42:32.110Z,85.93
2019-05-16T05:43:32.003Z,86.27
2019-05-16T05:44:31.925Z,86.18
2019-05-16T05:45:31.847Z,85.99
2019-05-16T05:46:31.849Z,86.18
2019-05-16T05:47:31.698Z,85.99
2019-05-16T05:48:31.596Z,86.08
2019-05-16T05:49:31.509Z,85.70
2019-05-16T05:50:31.440Z,86.18
2019-05-16T05:51:31.373Z,85.99
2019-05-16T05:52:31.278Z,86.69
2019-05-16T05:53:31.219Z,86.51
2019-05-16T05:54:31.102Z,86.03
2019-05-16T05:55:31.483Z,86.88
2019-05-16T05:56:30.937Z,87.07
2019-05-16T05:57:30.859Z,86.69
2019-05-16T05:58:31.102Z,86.79
2019-05-16T05:59:30.798Z,85.46
2019-05-16T06:00:30.607Z,84.98
2019-05-16T06:01:31.471Z,85.93
2019-05-16T06:02:30.966Z,85.08
2019-05-16T06:03:32.914Z,85.55
2019-05-16T06:04:30.616Z,85.36
2019-05-16T06:05:30.603Z,85.46
2019-05-16T06:06:30.484Z,85.64
2019-05-16T06:07:30.210Z,85.46
2019-05-16T06:08:30.561Z,84.03
2019-05-16T06:09:32.853Z,84.12
2019-05-16T06:10:30.432Z,83.74
2019-05-16T06:11:30.765Z,84.12
2019-05-16T06:12:30.282Z,83.84
2019-05-16T06:13:30.993Z,83.55
2019-05-16T06:14:30.653Z,84.69
2019-05-16T06:15:30.640Z,84.60
2019-05-16T06:16:30.824Z,85.64
2019-05-16T06:17:30.692Z,83.17
2019-05-16T06:18:30.617Z,82.83
2019-05-16T06:19:29.752Z,83.40
2019-05-16T06:20:30.796Z,84.16
2019-05-16T06:21:33.032Z,82.83
2019-05-16T06:22:29.894Z,81.97
2019-05-16T06:23:31.068Z,82.26
2019-05-16T06:24:30.507Z,82.17
2019-05-16T06:25:31.584Z,82.45
2019-05-16T06:26:30.334Z,81.78
2019-05-16T06:27:30.226Z,82.45
2019-05-16T06:28:30.573Z,81.59
2019-05-16T06:29:30.789Z,80.07
2019-05-16T06:30:30.401Z,79.88
2019-05-16T06:31:31.084Z,81.25
2019-05-16T06:32:30.232Z,80.30
2019-05-16T06:33:30.329Z,79.25
2019-05-16T06:34:30.029Z,79.35
2019-05-16T06:35:29.928Z,78.10
2019-05-16T06:36:27.629Z,77.06
2019-05-16T06:37:27.598Z,77.95
2019-05-16T06:38:29.693Z,78.14
2019-05-16T06:39:39.175Z,78.23
2019-05-16T06:40:29.435Z,77.44
2019-05-16T06:41:27.209Z,77.19
2019-05-16T06:42:27.227Z,78.14
2019-05-16T06:43:27.079Z,77.76
2019-05-16T06:44:26.962Z,77.95
2019-05-16T06:45:26.887Z,76.81
2019-05-16T06:46:26.803Z,77.38
2019-05-16T06:47:26.724Z,77.23
2019-05-16T06:48:26.683Z,75.76
2019-05-16T06:49:26.559Z,76.08
2019-05-16T06:50:26.472Z,76.14
2019-05-16T06:51:26.467Z,75.13
2019-05-16T06:52:26.314Z,74.99
2019-05-16T06:53:26.253Z,75.09
2019-05-16T06:54:26.149Z,75.42
2019-05-16T06:55:26.284Z,74.93
2019-05-16T06:56:25.989Z,74.93
2019-05-16T06:57:26.094Z,74.84
2019-05-16T06:58:25.839Z,74.17
2019-05-16T06:59:25.903Z,74.74
2019-05-16T07:00:26.552Z,75.03
2019-05-16T07:01:25.582Z,74.84
2019-05-16T07:02:30.617Z,74.49
2019-05-16T07:03:25.432Z,73.73
2019-05-16T07:04:25.340Z,73.79
2019-05-16T07:05:25.327Z,73.79
2019-05-16T07:06:47.666Z,74.46
2019-05-16T07:07:25.112Z,74.37
2019-05-16T07:08:25.175Z,74.74
2019-05-16T07:09:24.941Z,75.09
2019-05-16T07:10:24.858Z,75.32
2019-05-16T07:11:24.955Z,75.32
2019-05-16T07:12:24.703Z,75.89
2019-05-16T07:13:24.767Z,75.51
2019-05-16T07:14:28.154Z,75.98
2019-05-16T07:15:24.576Z,76.04
2019-05-16T07:16:24.370Z,75.28
2019-05-16T07:17:24.383Z,75.76
2019-05-16T07:18:24.207Z,75.57
2019-05-16T07:19:24.224Z,75.76
2019-05-16T07:20:24.048Z,76.42
2019-05-16T07:21:23.962Z,76.33
2019-05-16T07:22:23.888Z,76.71
2019-05-16T07:23:24.014Z,76.71
2019-05-16T07:24:23.731Z,76.33
2019-05-16T07:25:23.823Z,76.33
2019-05-16T07:26:23.563Z,75.76
2019-05-16T07:27:23.471Z,76.14
2019-05-16T07:28:23.443Z,76.52
2019-05-16T07:29:23.323Z,76.23
2019-05-16T07:30:23.234Z,76.23
2019-05-16T07:31:23.247Z,75.66
2019-05-16T07:32:23.066Z,75.85
2019-05-16T07:33:23.060Z,75.66
2019-05-16T07:34:22.916Z,75.76
2019-05-16T07:35:22.867Z,76.04
2019-05-16T07:36:22.741Z,75.95
2019-05-16T07:37:22.880Z,75.95
2019-05-16T07:38:22.576Z,75.37
2019-05-16T07:39:22.720Z,75.18
2019-05-16T07:40:26.499Z,74.99
2019-05-16T07:41:22.495Z,74.80
2019-05-16T07:42:22.259Z,75.95
2019-05-16T07:43:22.304Z,76.14
2019-05-16T07:44:22.109Z,74.52
2019-05-16T07:45:22.111Z,75.09
2019-05-16T07:46:21.926Z,75.28
2019-05-16T07:47:21.844Z,74.99
2019-05-16T07:48:22.310Z,74.46
2019-05-16T07:49:21.702Z,73.56
2019-05-16T07:50:21.596Z,74.46
2019-05-16T07:51:21.741Z,74.17
2019-05-16T07:52:21.446Z,74.65
2019-05-16T07:53:21.777Z,75.32
2019-05-16T07:54:21.506Z,74.74
2019-05-16T07:55:21.358Z,74.84
2019-05-16T07:56:21.113Z,75.89
2019-05-16T07:57:22.952Z,76.27
2019-05-16T07:58:22.160Z,77.51
2019-05-16T07:59:21.005Z,76.60
2019-05-16T08:00:21.817Z,75.74
2019-05-16T08:01:20.790Z,75.03
2019-05-16T08:02:21.101Z,75.03
2019-05-16T08:03:20.594Z,74.84
2019-05-16T08:04:20.479Z,75.13
2019-05-16T08:05:21.196Z,74.37
2019-05-16T08:06:20.330Z,75.09
2019-05-16T08:07:20.412Z,75.28
2019-05-16T08:09:21.143Z,77.09
2019-05-16T08:10:35.992Z,76.75
2019-05-16T08:11:23.384Z,76.23
2019-05-16T08:12:25.455Z,76.42
2019-05-16T08:13:21.082Z,76.56
2019-05-16T08:14:21.208Z,76.04
2019-05-16T08:15:21.253Z,76.18
2019-05-16T08:16:20.772Z,75.95
2019-05-16T08:17:21.657Z,75.85
2019-05-16T08:18:21.276Z,76.33
2019-05-16T08:19:20.007Z,76.33
2019-05-16T08:20:21.285Z,76.14
2019-05-16T08:21:20.227Z,76.48
2019-05-16T08:22:19.011Z,77.25
2019-05-16T08:23:21.883Z,77.53
2019-05-16T08:24:20.503Z,77.06
2019-05-16T08:25:20.394Z,78.01
2019-05-16T08:26:21.839Z,77.15
2019-05-16T08:27:20.846Z,76.86
2019-05-16T08:28:21.524Z,76.57
2019-05-16T08:29:21.796Z,77.25
2019-05-16T08:30:21.048Z,77.44
2019-05-16T08:31:21.402Z,77.91
2019-05-16T08:32:22.643Z,77.72
2019-05-16T08:33:21.414Z,76.67
2019-05-16T08:34:20.793Z,76.10
2019-05-16T08:35:20.505Z,76.67
2019-05-16T08:36:20.105Z,77.25
2019-05-16T08:37:34.000Z,77.34
2019-05-16T08:38:21.124Z,77.34
2019-05-16T08:39:17.613Z,76.29
2019-05-16T08:40:21.075Z,77.25
2019-05-16T08:41:21.739Z,76.96
2019-05-16T08:42:20.600Z,76.48
2019-05-16T08:43:21.414Z,77.34
2019-05-16T08:44:21.307Z,77.44
2019-05-16T08:45:17.146Z,77.15
2019-05-16T08:46:20.017Z,76.86
2019-05-16T08:47:16.962Z,76.57
2019-05-16T08:48:16.999Z,77.06
2019-05-16T08:49:16.793Z,77.53
2019-05-16T08:50:12.168Z,75.66
2019-05-16T08:50:16.843Z,78.20
2019-05-16T08:51:16.636Z,78.10
2019-05-16T08:52:16.631Z,77.25
2019-05-16T08:53:16.622Z,77.72
2019-05-16T08:54:16.515Z,77.72
2019-05-16T08:55:16.331Z,77.72
2019-05-16T08:56:16.437Z,77.72
2019-05-16T08:58:16.247Z,77.15
2019-05-16T08:59:15.978Z,77.91
2019-05-16T09:00:16.056Z,78.01
2019-05-16T09:01:15.819Z,77.82
2019-05-16T09:02:15.730Z,77.91
2019-05-16T09:03:15.867Z,77.53
2019-05-16T09:04:15.569Z,78.39
2019-05-16T09:05:15.486Z,78.49
2019-05-16T09:06:15.509Z,77.82
2019-05-16T09:07:15.314Z,77.72
2019-05-16T09:08:15.291Z,77.91
2019-05-16T09:09:29.484Z,78.10
2019-05-16T09:10:35.524Z,78.10
2019-05-16T09:10:45.712Z,78.33
2019-05-16T09:11:33.003Z,80.15
2019-05-16T09:12:17.178Z,81.10
2019-05-16T09:13:16.806Z,81.77
2019-05-16T09:14:17.168Z,79.00
2019-05-16T09:15:17.070Z,78.05
2019-05-16T09:16:14.587Z,78.14
2019-05-16T09:17:14.531Z,77.28
2019-05-16T09:18:17.562Z,76.84
2019-05-16T09:19:16.851Z,76.37
2019-05-16T09:20:17.285Z,77.32
2019-05-16T09:21:14.191Z,75.79
2019-05-16T09:22:14.087Z,75.32
2019-05-16T09:23:14.161Z,75.32
2019-05-16T09:24:13.919Z,75.74
2019-05-16T09:25:13.862Z,75.83
2019-05-16T09:26:18.720Z,75.16
2019-05-16T09:27:13.675Z,74.49
2019-05-16T09:28:13.596Z,73.83
2019-05-16T09:29:13.586Z,74.49
2019-05-16T09:30:13.437Z,74.69
2019-05-16T09:31:13.367Z,75.39
2019-05-16T09:32:17.952Z,75.20
2019-05-16T09:33:13.199Z,75.68
2019-05-16T09:34:13.210Z,74.34
2019-05-16T09:35:13.029Z,72.14
2019-05-16T09:36:12.968Z,74.24
2019-05-16T09:37:12.879Z,74.24
2019-05-16T09:38:12.825Z,73.48
2019-05-16T09:39:12.714Z,72.58
2019-05-16T09:40:12.628Z,74.11
2019-05-16T09:41:12.571Z,73.44
2019-05-16T09:42:12.649Z,73.92
2019-05-16T09:43:12.387Z,73.67
2019-05-16T09:44:12.304Z,73.67
2019-05-16T09:45:12.254Z,73.48
2019-05-16T09:46:12.142Z,71.95
2019-05-16T09:47:12.083Z,72.14
2019-05-16T09:48:12.074Z,73.48
2019-05-16T09:49:19.441Z,73.86
2019-05-16T09:50:11.823Z,74.15
2019-05-16T09:51:11.884Z,72.43
2019-05-16T09:52:11.675Z,72.58
2019-05-16T09:53:11.697Z,73.67
2019-05-16T09:54:11.499Z,73.39
2019-05-16T09:55:11.504Z,73.29
2019-05-16T09:56:11.342Z,72.56
2019-05-16T09:57:11.268Z,72.66
2019-05-16T09:58:11.323Z,72.56
2019-05-16T09:59:11.105Z,72.47
2019-05-16T10:00:11.018Z,71.89
2019-05-16T10:01:11.134Z,71.22
2019-05-16T10:02:10.868Z,70.78
2019-05-16T10:03:10.811Z,71.36
2019-05-16T10:04:11.629Z,71.26
2019-05-16T10:05:13.193Z,70.34
2019-05-16T10:06:10.533Z,69.29
2019-05-16T10:07:10.590Z,69.09
2019-05-16T10:08:10.374Z,69.76
2019-05-16T10:09:10.364Z,69.03
2019-05-16T10:10:10.213Z,69.60
2019-05-16T10:11:10.175Z,68.78
2019-05-16T10:12:15.364Z,68.97
2019-05-16T10:13:09.977Z,67.25
2019-05-16T10:14:09.992Z,65.39
2019-05-16T10:15:09.815Z,67.31
2019-05-16T10:16:09.743Z,67.41
2019-05-16T10:17:09.838Z,66.64
2019-05-16T10:18:09.583Z,65.17
2019-05-16T10:19:09.613Z,65.04
2019-05-16T10:20:09.430Z,65.94
2019-05-16T10:21:09.426Z,65.26
2019-05-16T10:22:09.290Z,65.26
2019-05-16T10:23:14.702Z,65.17
2019-05-16T10:24:09.105Z,63.64
2019-05-16T10:25:09.448Z,63.64
2019-05-16T10:26:08.948Z,64.59
2019-05-16T10:27:08.871Z,66.16
2019-05-16T10:28:08.907Z,65.20
2019-05-16T10:29:11.008Z,65.91
2019-05-16T10:30:08.903Z,63.99
2019-05-16T10:31:08.563Z,64.79
2019-05-16T10:32:08.515Z,63.26
2019-05-16T10:33:08.420Z,63.13
2019-05-16T10:34:08.325Z,64.47
2019-05-16T10:35:08.263Z,66.32
2019-05-16T10:36:08.611Z,65.26
2019-05-16T10:37:08.307Z,64.47
2019-05-16T10:38:08.028Z,64.37
2019-05-16T10:39:07.999Z,64.82
2019-05-16T10:40:07.880Z,65.84
2019-05-16T10:41:07.920Z,67.98
2019-05-16T10:42:21.992Z,67.69
2019-05-16T10:43:07.650Z,67.02
2019-05-16T10:44:07.731Z,67.79
2019-05-16T10:45:08.585Z,66.83
2019-05-16T10:46:07.392Z,67.25
2019-05-16T10:47:07.700Z,66.77
2019-05-16T10:48:07.247Z,67.44
2019-05-16T10:49:07.358Z,65.88
2019-05-16T10:50:07.078Z,66.16
2019-05-16T10:51:07.856Z,68.46
2019-05-16T10:52:07.296Z,67.69
2019-05-16T10:53:25.832Z,66.83
2019-05-16T10:54:13.402Z,66.09
2019-05-16T10:55:08.155Z,65.65
2019-05-16T10:56:07.791Z,65.46
2019-05-16T10:57:08.146Z,67.22
2019-05-16T10:58:07.359Z,65.49
2019-05-16T10:59:50.218Z,64.53
2019-05-16T11:00:16.099Z,63.45
2019-05-16T11:01:18.892Z,65.33
2019-05-16T11:02:07.508Z,65.78
2019-05-16T11:03:06.648Z,67.91
2019-05-16T11:04:07.533Z,66.64
2019-05-16T11:05:24.594Z,68.68
2019-05-16T11:06:08.941Z,69.01
2019-05-16T11:07:05.835Z,66.77
2019-05-16T11:08:08.242Z,67.25
2019-05-16T11:09:06.496Z,66.58
2019-05-16T11:10:07.057Z,66.77
2019-05-16T11:11:06.664Z,66.80
2019-05-16T11:12:05.393Z,67.18
2019-05-16T11:13:07.880Z,67.60
2019-05-16T11:14:08.990Z,66.03
2019-05-16T11:15:07.820Z,66.19
2019-05-16T11:16:07.026Z,66.77
2019-05-16T11:17:11.754Z,66.89
2019-05-16T11:18:06.842Z,67.28
2019-05-16T11:19:17.919Z,66.42
2019-05-16T11:20:04.780Z,66.74
2019-05-16T11:21:04.904Z,65.59
2019-05-16T11:22:04.627Z,66.29
2019-05-16T11:23:07.698Z,66.13
2019-05-16T11:24:06.304Z,65.30
2019-05-16T11:25:18.446Z,63.83
2019-05-16T11:26:04.331Z,64.43
2019-05-16T11:27:04.329Z,65.40
2019-05-16T11:28:07.014Z,65.72
2019-05-16T11:29:04.171Z,64.02
2019-05-16T11:30:04.123Z,62.58
2019-05-16T11:31:04.232Z,62.00
2019-05-16T11:32:03.896Z,63.02
2019-05-16T11:33:03.962Z,63.22
2019-05-16T11:34:03.754Z,63.57
2019-05-16T11:35:03.771Z,64.22
2019-05-16T11:36:03.597Z,65.56
2019-05-16T11:37:03.519Z,65.33
2019-05-16T11:38:03.444Z,66.49
2019-05-16T11:39:03.418Z,68.50
2019-05-16T11:40:03.307Z,68.53
2019-05-16T11:41:03.229Z,66.90
2019-05-16T11:42:03.201Z,65.20
2019-05-16T11:43:09.364Z,65.36
2019-05-16T11:44:03.026Z,65.84
2019-05-16T11:45:03.019Z,66.84
2019-05-16T11:46:02.863Z,66.16
2019-05-16T11:47:02.835Z,65.46
2019-05-16T11:48:02.831Z,66.84
2019-05-16T11:49:02.651Z,66.52
2019-05-16T11:50:02.639Z,66.23
2019-05-16T11:51:02.491Z,66.00
2019-05-16T11:52:02.448Z,67.60
2019-05-16T11:53:02.338Z,67.66
2019-05-16T11:54:02.493Z,68.43
2019-05-16T11:55:02.197Z,70.73
2019-05-16T11:56:02.388Z,69.33
2019-05-16T11:57:02.033Z,69.13
2019-05-16T11:58:01.963Z,68.27
2019-05-16T11:59:02.125Z,68.66
2019-05-16T12:00:01.824Z,68.18
2019-05-16T12:01:01.735Z,69.23
2019-05-16T12:02:01.693Z,69.13
2019-05-16T12:03:01.576Z,69.07
2019-05-16T12:04:02.563Z,69.13
2019-05-16T12:05:01.452Z,68.66
2019-05-16T12:06:01.518Z,68.37
2019-05-16T12:07:01.267Z,68.95
2019-05-16T12:08:01.332Z,68.02
2019-05-16T12:09:01.153Z,67.73
2019-05-16T12:10:01.148Z,68.27
2019-05-16T12:11:00.967Z,68.30
2019-05-16T12:12:04.214Z,70.03
2019-05-16T12:13:00.949Z,68.79
2019-05-16T12:14:00.732Z,67.89
2019-05-16T12:15:00.673Z,69.07
2019-05-16T12:16:00.831Z,68.98
2019-05-16T12:17:00.495Z,69.01
2019-05-16T12:18:04.781Z,68.44
2019-05-16T12:19:00.372Z,67.57
2019-05-16T12:20:00.302Z,68.30
2019-05-16T12:21:00.190Z,69.30
2019-05-16T12:22:00.402Z,68.73
2019-05-16T12:23:00.049Z,68.53
2019-05-16T12:23:59.963Z,69.01
2019-05-16T12:25:00.040Z,69.30
2019-05-16T12:26:00.290Z,70.29
2019-05-16T12:27:00.771Z,69.01
2019-05-16T12:27:59.819Z,69.11
2019-05-16T12:28:59.580Z,71.03
2019-05-16T12:29:59.516Z,69.93
2019-05-16T12:30:59.631Z,70.13
2019-05-16T12:32:02.718Z,70.99
2019-05-16T12:32:59.256Z,70.42
2019-05-16T12:33:59.886Z,70.29
2019-05-16T12:34:59.118Z,69.74
2019-05-16T12:35:59.027Z,70.03
2019-05-16T12:36:59.063Z,69.93
2019-05-16T12:37:58.872Z,70.13
2019-05-16T12:38:58.868Z,68.91
2019-05-16T12:39:58.737Z,68.63
2019-05-16T12:40:58.675Z,68.69
2019-05-16T12:41:59.838Z,70.42
2019-05-16T12:42:58.484Z,71.66
2019-05-16T12:43:58.492Z,70.23
2019-05-16T12:44:58.342Z,70.61
2019-05-16T12:45:58.256Z,70.19
2019-05-16T12:46:58.306Z,70.38
2019-05-16T12:47:58.094Z,70.51
2019-05-16T12:48:58.017Z,71.28
2019-05-16T12:49:58.177Z,71.09
2019-05-16T12:50:58.965Z,70.19